Time;durP1;ratioP1;P1;durP2;ratioP2;P2;SDS_P1;SDS_P2;PMS_P1;PMS_P2;Temp;Humidity;BMP_temperature;BMP_pressure;BME280_temperature;BME280_humidity;BME280_pressure;Samples;Min_cycle;Max_cycle;Signal;HPM_P1;HPM_P2
2021/01/14 00:01:23;;;;;;;5.70;1.80;;;15.30;60.00;;;;;;4971115;28;20508;-64
2021/01/14 00:03:48;;;;;;;6.57;1.60;;;15.30;59.90;;;;;;4963511;28;20101;-65
2021/01/14 00:06:14;;;;;;;5.15;1.42;;;15.30;59.80;;;;;;4973789;28;20494;-64
2021/01/14 00:08:40;;;;;;;6.20;1.50;;;15.30;59.90;;;;;;4966897;28;20031;-64
2021/01/14 00:11:05;;;;;;;7.40;1.77;;;15.20;59.90;;;;;;4950020;28;20027;-64
2021/01/14 00:13:30;;;;;;;5.43;1.40;;;15.20;60.10;;;;;;4964012;28;20026;-65
2021/01/14 00:15:56;;;;;;;4.82;1.50;;;15.20;60.20;;;;;;4938261;28;20031;-65
2021/01/14 00:18:22;;;;;;;4.68;1.30;;;15.20;60.30;;;;;;4963565;28;20105;-64
2021/01/14 00:20:47;;;;;;;6.30;1.33;;;15.20;60.30;;;;;;4964183;28;20121;-65
2021/01/14 00:23:13;;;;;;;6.70;1.25;;;15.10;60.40;;;;;;4944934;29;20046;-67
2021/01/14 00:25:38;;;;;;;6.03;1.45;;;15.10;60.40;;;;;;4946698;28;20023;-64
2021/01/14 00:28:04;;;;;;;5.55;1.40;;;15.10;60.20;;;;;;4966006;28;20023;-63
2021/01/14 00:30:32;;;;;;;6.78;1.95;;;15.10;60.20;;;;;;4941288;28;20526;-66
2021/01/14 00:32:59;;;;;;;7.65;1.40;;;15.10;60.30;;;;;;4949281;28;20031;-65
2021/01/14 00:35:29;;;;;;;5.85;1.63;;;15.00;60.40;;;;;;4962224;28;20027;-64
2021/01/14 00:37:55;;;;;;;4.97;1.17;;;15.00;60.20;;;;;;4964185;28;20027;-64
2021/01/14 00:40:34;;;;;;;6.05;1.58;;;15.00;60.20;;;;;;4959233;28;20407;-64
2021/01/14 00:43:09;;;;;;;5.20;1.30;;;15.00;60.20;;;;;;4959466;28;20045;-64
2021/01/14 00:45:35;;;;;;;6.47;1.63;;;15.00;60.40;;;;;;4968132;28;20027;-64
2021/01/14 00:48:02;;;;;;;4.55;1.38;;;14.90;60.50;;;;;;4959615;28;20050;-63
2021/01/14 00:50:29;;;;;;;6.05;1.20;;;14.90;60.60;;;;;;4949888;28;20031;-64
2021/01/14 00:52:55;;;;;;;5.85;1.60;;;14.90;60.50;;;;;;4959698;28;20094;-64
2021/01/14 00:55:21;;;;;;;4.35;1.10;;;14.90;60.60;;;;;;4946500;28;20170;-64
2021/01/14 00:57:47;;;;;;;2.33;1.08;;;14.80;60.50;;;;;;4947819;28;20027;-64
2021/01/14 01:00:21;;;;;;;4.45;1.20;;;14.80;60.70;;;;;;4963868;28;20035;-64
2021/01/14 01:02:49;;;;;;;4.75;1.10;;;14.80;60.70;;;;;;4965108;28;20037;-64
2021/01/14 01:05:16;;;;;;;4.63;1.13;;;14.80;61.30;;;;;;4948423;28;20122;-64
2021/01/14 01:07:55;;;;;;;2.78;0.93;;;14.80;60.80;;;;;;4948365;28;20053;-64
2021/01/14 01:10:21;;;;;;;4.15;1.30;;;14.80;60.80;;;;;;4956604;28;20023;-64
2021/01/14 01:12:55;;;;;;;4.72;1.20;;;14.80;60.60;;;;;;4956812;28;20034;-64
2021/01/14 01:15:21;;;;;;;5.22;1.10;;;14.70;60.40;;;;;;4972024;28;20027;-63
2021/01/14 01:17:46;;;;;;;4.40;1.20;;;14.70;60.50;;;;;;4972499;28;20015;-64
2021/01/14 01:20:13;;;;;;;4.22;1.10;;;14.70;60.60;;;;;;4955044;28;20077;-65
2021/01/14 01:22:38;;;;;;;3.78;1.15;;;14.70;60.60;;;;;;4971762;28;20034;-64
2021/01/14 01:25:04;;;;;;;3.00;0.95;;;14.70;60.90;;;;;;4988100;28;20041;-64
2021/01/14 01:27:30;;;;;;;5.20;1.08;;;14.70;60.80;;;;;;4955381;28;20019;-64
2021/01/14 01:29:56;;;;;;;3.03;0.80;;;14.70;60.70;;;;;;4972165;28;20065;-66
2021/01/14 01:32:22;;;;;;;4.57;1.00;;;14.70;60.90;;;;;;4953955;28;20392;-65
2021/01/14 01:34:47;;;;;;;3.13;0.95;;;14.70;60.80;;;;;;4957992;28;20039;-63
2021/01/14 01:37:13;;;;;;;4.47;1.00;;;14.70;60.60;;;;;;4972451;28;20456;-64
2021/01/14 01:39:38;;;;;;;4.43;1.02;;;14.70;60.60;;;;;;4971232;28;20106;-64
2021/01/14 01:42:04;;;;;;;6.00;0.93;;;14.70;60.70;;;;;;4964961;28;20075;-64
2021/01/14 01:44:30;;;;;;;6.13;0.98;;;14.70;60.90;;;;;;4955624;28;20428;-64
2021/01/14 01:47:07;;;;;;;4.38;1.23;;;14.70;60.90;;;;;;4969702;28;20037;-63
2021/01/14 01:49:34;;;;;;;4.15;1.00;;;14.70;60.90;;;;;;4958209;28;20026;-64
2021/01/14 01:52:06;;;;;;;4.45;1.10;;;14.70;60.80;;;;;;4966037;28;20027;-63
2021/01/14 01:54:33;;;;;;;4.60;1.00;;;14.60;61.00;;;;;;4968823;28;20022;-66
2021/01/14 01:57:01;;;;;;;5.50;1.17;;;14.60;60.90;;;;;;4965812;28;20030;-65
2021/01/14 01:59:29;;;;;;;3.72;1.02;;;14.60;60.80;;;;;;4942215;28;20030;-65
2021/01/14 02:01:55;;;;;;;2.47;0.70;;;14.60;60.80;;;;;;4953428;28;20034;-64
2021/01/14 02:04:20;;;;;;;3.17;0.90;;;14.60;60.90;;;;;;4959016;28;20473;-64
2021/01/14 02:06:55;;;;;;;3.70;0.90;;;14.60;60.80;;;;;;4952689;29;20071;-64
2021/01/14 02:09:22;;;;;;;2.70;1.00;;;14.60;60.80;;;;;;4958834;28;20022;-64
2021/01/14 02:11:55;;;;;;;3.42;1.10;;;14.60;60.80;;;;;;4969997;28;20081;-66
2021/01/14 02:14:26;;;;;;;3.92;1.00;;;14.60;60.80;;;;;;4970441;28;20022;-64
2021/01/14 02:16:53;;;;;;;3.90;1.13;;;14.50;60.80;;;;;;4960601;28;20046;-67
2021/01/14 02:19:26;;;;;;;3.90;0.88;;;14.50;60.90;;;;;;4953515;28;20106;-64
2021/01/14 02:21:59;;;;;;;5.82;1.10;;;14.50;60.90;;;;;;4953320;28;20031;-64
2021/01/14 02:24:46;;;;;;;6.13;1.13;;;14.50;60.80;;;;;;4952586;28;20480;-64
2021/01/14 02:27:12;;;;;;;6.78;1.05;;;14.50;60.90;;;;;;4953346;28;20534;-65
2021/01/14 02:29:38;;;;;;;4.75;0.90;;;14.50;60.90;;;;;;4970839;28;20027;-66
2021/01/14 02:32:15;;;;;;;4.05;0.90;;;14.50;61.00;;;;;;4969937;28;20030;-66
2021/01/14 02:34:40;;;;;;;3.58;1.05;;;14.40;60.80;;;;;;4964428;28;20034;-64
2021/01/14 02:37:06;;;;;;;4.32;1.15;;;14.40;60.80;;;;;;4968817;28;20057;-65
2021/01/14 02:39:32;;;;;;;3.45;0.90;;;14.40;60.80;;;;;;4956494;28;20026;-64
2021/01/14 02:41:57;;;;;;;4.38;0.98;;;14.40;60.70;;;;;;4953075;28;20015;-64
2021/01/14 02:44:23;;;;;;;3.30;1.00;;;14.40;60.80;;;;;;4971984;28;20615;-64
2021/01/14 02:46:49;;;;;;;3.20;0.80;;;14.40;60.70;;;;;;4970741;28;20022;-64
2021/01/14 02:49:15;;;;;;;3.88;1.00;;;14.40;60.60;;;;;;4972701;28;20026;-64
2021/01/14 02:51:49;;;;;;;4.35;0.90;;;14.40;60.60;;;;;;4960678;28;20018;-64
2021/01/14 02:54:16;;;;;;;4.07;0.90;;;14.40;60.60;;;;;;4974364;28;20023;-64
2021/01/14 02:56:43;;;;;;;4.43;0.93;;;14.40;60.50;;;;;;4974543;28;20061;-63
2021/01/14 02:59:09;;;;;;;3.30;0.90;;;14.40;60.60;;;;;;4958209;28;20031;-66
2021/01/14 03:01:35;;;;;;;5.03;1.15;;;14.40;60.70;;;;;;4975344;28;20029;-65
2021/01/14 03:04:02;;;;;;;4.13;1.13;;;14.30;60.60;;;;;;4985521;28;20041;-66
2021/01/14 03:06:27;;;;;;;4.72;1.02;;;14.30;60.70;;;;;;4985950;28;20066;-64
2021/01/14 03:08:53;;;;;;;2.90;0.80;;;14.30;60.60;;;;;;4987011;28;20023;-64
2021/01/14 03:11:37;;;;;;;3.40;0.93;;;14.30;60.70;;;;;;4982485;28;20035;-66
2021/01/14 03:14:02;;;;;;;4.40;0.80;;;14.30;60.60;;;;;;4966918;28;20247;-64
2021/01/14 03:16:29;;;;;;;3.25;1.08;;;14.30;60.60;;;;;;4973859;28;20035;-64
2021/01/14 03:18:55;;;;;;;4.38;0.95;;;14.20;60.70;;;;;;4962408;28;20030;-64
2021/01/14 03:21:22;;;;;;;4.60;0.90;;;14.20;60.70;;;;;;4966245;28;20118;-64
2021/01/14 03:23:48;;;;;;;5.25;1.00;;;14.20;60.70;;;;;;4950992;28;20117;-67
2021/01/14 03:26:15;;;;;;;3.35;0.82;;;14.20;60.80;;;;;;4985397;28;20077;-65
2021/01/14 03:28:41;;;;;;;1.80;0.65;;;14.20;60.70;;;;;;4957546;28;20022;-64
2021/01/14 03:31:09;;;;;;;3.30;0.80;;;14.20;60.70;;;;;;4966811;28;20034;-64
2021/01/14 03:33:34;;;;;;;2.17;0.60;;;14.20;60.70;;;;;;4956978;28;20035;-64
2021/01/14 03:36:00;;;;;;;3.20;0.60;;;14.20;60.70;;;;;;4955351;28;20033;-64
2021/01/14 03:38:25;;;;;;;5.32;1.23;;;14.10;60.70;;;;;;4956951;28;20074;-63
2021/01/14 03:40:52;;;;;;;2.72;0.80;;;14.10;60.70;;;;;;4974061;28;20039;-66
2021/01/14 03:43:17;;;;;;;3.08;0.77;;;14.10;60.80;;;;;;4965256;28;20031;-66
2021/01/14 03:45:42;;;;;;;2.53;0.70;;;14.10;60.70;;;;;;4973522;28;20027;-64
2021/01/14 03:48:08;;;;;;;2.63;0.75;;;14.00;60.70;;;;;;4974140;28;20039;-64
2021/01/14 03:50:34;;;;;;;3.13;0.80;;;14.10;61.00;;;;;;4973191;28;20105;-64
2021/01/14 03:52:59;;;;;;;2.92;0.95;;;14.00;60.90;;;;;;4968091;28;20031;-64
2021/01/14 03:55:25;;;;;;;4.15;1.02;;;14.00;61.00;;;;;;4952167;28;20027;-64
2021/01/14 03:57:51;;;;;;;2.10;0.77;;;14.00;60.90;;;;;;4969731;28;20042;-64
2021/01/14 04:00:17;;;;;;;2.10;0.70;;;13.90;60.90;;;;;;4979359;28;20681;-64
2021/01/14 04:02:42;;;;;;;3.58;0.90;;;13.90;60.90;;;;;;4954705;28;20031;-64
2021/01/14 04:05:09;;;;;;;3.50;0.90;;;13.90;61.00;;;;;;4956308;28;20015;-64
2021/01/14 04:07:35;;;;;;;3.53;0.85;;;13.90;61.00;;;;;;4973972;28;20034;-64
2021/01/14 04:10:03;;;;;;;2.75;0.85;;;13.90;61.00;;;;;;4961323;28;20030;-64
2021/01/14 04:12:29;;;;;;;2.63;0.85;;;13.90;61.00;;;;;;4955388;28;20080;-64
2021/01/14 04:14:58;;;;;;;2.03;0.80;;;13.90;61.00;;;;;;4974610;28;20500;-65
2021/01/14 04:17:23;;;;;;;3.60;0.80;;;13.90;61.00;;;;;;4973796;28;20037;-64
2021/01/14 04:19:49;;;;;;;2.53;0.70;;;13.90;60.90;;;;;;4981490;28;20480;-64
2021/01/14 04:22:15;;;;;;;3.40;0.80;;;13.90;60.90;;;;;;4973861;28;20399;-64
2021/01/14 04:24:41;;;;;;;2.60;0.70;;;13.90;60.80;;;;;;4956287;28;20484;-64
2021/01/14 04:27:07;;;;;;;3.20;0.80;;;13.90;60.80;;;;;;4973463;28;20106;-64
2021/01/14 04:29:33;;;;;;;1.83;0.60;;;13.90;60.80;;;;;;4965953;28;20557;-64
2021/01/14 04:31:58;;;;;;;2.88;0.80;;;13.90;60.80;;;;;;4957985;28;20396;-64
2021/01/14 04:34:24;;;;;;;3.67;0.95;;;13.90;60.80;;;;;;4955504;28;20022;-66
2021/01/14 04:37:01;;;;;;;3.08;0.82;;;13.90;60.80;;;;;;4962323;28;20026;-64
2021/01/14 04:39:27;;;;;;;3.30;0.90;;;13.80;60.70;;;;;;4972916;28;20027;-65
2021/01/14 04:41:58;;;;;;;2.33;0.80;;;13.80;60.70;;;;;;4955160;28;20027;-64
2021/01/14 04:44:27;;;;;;;4.27;0.90;;;13.80;60.70;;;;;;4955067;28;20030;-63
2021/01/14 04:47:15;;;;;;;2.38;0.88;;;13.90;60.80;;;;;;4962803;28;20082;-64
2021/01/14 04:49:42;;;;;;;3.17;0.60;;;13.80;60.80;;;;;;4973400;28;20022;-64
2021/01/14 04:52:17;;;;;;;3.25;0.80;;;13.80;60.70;;;;;;4955428;28;20035;-64
2021/01/14 04:54:44;;;;;;;2.70;0.80;;;13.90;60.60;;;;;;4960041;28;20444;-66
2021/01/14 04:57:18;;;;;;;3.75;1.20;;;13.90;60.30;;;;;;4964234;28;20031;-65
2021/01/14 04:59:53;;;;;;;2.47;0.63;;;13.90;60.10;;;;;;4972709;28;20038;-64
2021/01/14 05:02:24;;;;;;;3.65;0.90;;;13.90;60.00;;;;;;4970948;28;20073;-65
2021/01/14 05:04:51;;;;;;;2.35;0.68;;;13.90;59.90;;;;;;4970021;28;20030;-65
2021/01/14 05:07:32;;;;;;;4.40;1.00;;;13.90;59.90;;;;;;4973818;28;20042;-64
2021/01/14 05:10:04;;;;;;;4.82;0.90;;;13.90;60.00;;;;;;4962140;28;20030;-64
2021/01/14 05:12:31;;;;;;;;;;;13.90;60.00;;;;;;4955073;28;20077;-64
2021/01/14 05:14:57;;;;;;;2.28;0.70;;;13.90;59.90;;;;;;4972012;28;19906;-68
2021/01/14 05:17:22;;;;;;;3.83;0.77;;;13.90;59.80;;;;;;4971529;28;20034;-65
2021/01/14 05:19:52;;;;;;;4.65;0.93;;;13.90;59.90;;;;;;4966648;28;20113;-64
2021/01/14 05:22:19;;;;;;;2.92;0.90;;;13.90;59.80;;;;;;4972248;28;20518;-65
2021/01/14 05:25:14;;;;;;;6.43;0.90;;;13.90;60.00;;;;;;4970941;28;20362;-64
2021/01/14 05:27:40;;;;;;;5.95;1.00;;;13.90;60.50;;;;;;4937005;28;20043;-64
2021/01/14 05:30:08;;;;;;;5.90;1.23;;;13.80;59.70;;;;;;4970361;28;20041;-64
2021/01/14 05:32:45;;;;;;;6.28;1.48;;;13.90;59.50;;;;;;4970096;28;20041;-64
2021/01/14 05:35:13;;;;;;;6.75;1.30;;;13.90;59.10;;;;;;4956122;28;20055;-63
2021/01/14 05:37:44;;;;;;;8.40;1.77;;;13.90;59.20;;;;;;4970670;28;20031;-63
2021/01/14 05:40:13;;;;;;;12.00;3.40;;;13.90;59.50;;;;;;4952907;28;20201;-64
2021/01/14 05:42:39;;;;;;;10.00;3.22;;;13.90;59.70;;;;;;4975624;28;20038;-64
2021/01/14 05:45:25;;;;;;;11.93;2.90;;;14.00;59.70;;;;;;4947209;28;20038;-64
2021/01/14 05:48:06;;;;;;;9.68;3.03;;;14.10;59.40;;;;;;4959138;28;20050;-64
2021/01/14 05:50:35;;;;;;;9.43;2.33;;;14.20;59.00;;;;;;4950859;28;20027;-64
2021/01/14 05:53:15;;;;;;;10.40;3.00;;;14.20;58.80;;;;;;4956049;28;20042;-66
2021/01/14 05:55:43;;;;;;;17.40;3.10;;;14.50;58.10;;;;;;4957647;28;20042;-66
2021/01/14 05:58:16;;;;;;;9.00;2.20;;;14.80;57.50;;;;;;4936832;28;20046;-65
2021/01/14 06:00:44;;;;;;;22.08;2.70;;;15.00;56.80;;;;;;4957960;28;20108;-67
2021/01/14 06:03:30;;;;;;;16.77;2.47;;;15.10;56.40;;;;;;4960223;28;20396;-63
2021/01/14 06:05:57;;;;;;;15.80;2.15;;;15.20;56.70;;;;;;4965092;28;20027;-64
2021/01/14 06:08:25;;;;;;;21.17;3.92;;;15.20;56.80;;;;;;4975346;28;20182;-64
2021/01/14 06:10:51;;;;;;;15.70;3.58;;;15.30;56.80;;;;;;4962538;28;20106;-63
2021/01/14 06:13:16;;;;;;;15.63;3.28;;;15.20;57.60;;;;;;4947514;28;20058;-64
2021/01/14 06:15:43;;;;;;;15.55;3.05;;;15.30;57.70;;;;;;4966828;28;20250;-66
2021/01/14 06:18:11;;;;;;;13.02;3.40;;;15.40;57.20;;;;;;4941464;28;20045;-64
2021/01/14 06:20:53;;;;;;;13.25;3.40;;;15.20;57.20;;;;;;4951452;28;20829;-64
2021/01/14 06:23:22;;;;;;;10.90;2.95;;;15.10;57.70;;;;;;4947646;28;20070;-64
2021/01/14 06:25:53;;;;;;;10.48;3.30;;;15.20;57.60;;;;;;4967781;28;20029;-64
2021/01/14 06:28:20;;;;;;;18.00;4.10;;;15.20;57.70;;;;;;4967964;28;20114;-64
2021/01/14 06:31:07;;;;;;;16.63;3.33;;;15.30;57.60;;;;;;4951736;28;20055;-63
2021/01/14 06:33:34;;;;;;;12.75;3.90;;;15.20;57.70;;;;;;4961718;28;20627;-64
2021/01/14 06:36:07;;;;;;;12.60;3.63;;;15.20;58.20;;;;;;4953182;28;20046;-64
2021/01/14 06:38:44;;;;;;;9.20;2.83;;;15.20;58.40;;;;;;4953246;28;20031;-64
2021/01/14 06:41:21;;;;;;;9.73;2.80;;;15.20;58.50;;;;;;4948612;28;20234;-65
2021/01/14 06:43:48;;;;;;;8.30;2.70;;;15.20;58.50;;;;;;4967236;28;20053;-64
2021/01/14 06:46:17;;;;;;;9.23;2.50;;;15.20;58.50;;;;;;4940787;28;20509;-64
2021/01/14 06:48:48;;;;;;;9.82;2.85;;;15.20;58.40;;;;;;4964322;28;20023;-64
2021/01/14 06:51:22;;;;;;;7.75;2.35;;;15.30;58.20;;;;;;4955234;28;20073;-64
2021/01/14 06:53:51;;;;;;;7.80;2.17;;;15.30;58.00;;;;;;4956619;28;20586;-64
2021/01/14 06:56:22;;;;;;;7.80;2.40;;;15.40;57.90;;;;;;4965473;28;20051;-64
2021/01/14 06:58:50;;;;;;;11.70;2.20;;;15.50;57.70;;;;;;4964350;28;20058;-64
2021/01/14 07:01:18;;;;;;;4.13;1.73;;;15.60;57.50;;;;;;4961817;28;20038;-64
2021/01/14 07:04:00;;;;;;;7.18;2.00;;;15.60;57.20;;;;;;4945747;28;20652;-63
2021/01/14 07:06:27;;;;;;;6.82;2.00;;;15.70;57.10;;;;;;4954368;28;20676;-64
2021/01/14 07:09:17;;;;;;;4.13;1.65;;;15.70;57.10;;;;;;4956989;28;20070;-64
2021/01/14 07:11:42;;;;;;;6.93;1.90;;;15.70;57.00;;;;;;4949186;28;20047;-64
2021/01/14 07:14:13;;;;;;;6.78;1.80;;;15.70;56.90;;;;;;4959049;28;20047;-64
2021/01/14 07:16:42;;;;;;;5.57;1.77;;;15.70;56.90;;;;;;4969811;28;20534;-64
2021/01/14 07:19:09;;;;;;;7.15;1.95;;;15.70;57.00;;;;;;4956520;28;20027;-64
2021/01/14 07:21:37;;;;;;;5.50;1.60;;;15.70;57.00;;;;;;4959134;28;20535;-64
2021/01/14 07:24:07;;;;;;;6.78;1.70;;;15.70;57.10;;;;;;4962326;28;20051;-64
2021/01/14 07:26:34;;;;;;;6.15;1.92;;;15.70;57.60;;;;;;4950305;28;20027;-64
2021/01/14 07:29:04;;;;;;;5.90;1.50;;;15.70;57.10;;;;;;4967919;28;20550;-65
2021/01/14 07:31:30;;;;;;;5.57;2.08;;;15.70;57.00;;;;;;4967224;28;20055;-63
2021/01/14 07:33:55;;;;;;;5.18;1.58;;;15.70;57.10;;;;;;4968970;28;20035;-63
2021/01/14 07:36:26;;;;;;;5.57;1.55;;;15.70;57.10;;;;;;4956332;28;20400;-64
2021/01/14 07:38:59;;;;;;;4.93;1.88;;;15.70;57.10;;;;;;4958820;28;20121;-65
2021/01/14 07:41:25;;;;;;;4.05;1.60;;;15.70;57.30;;;;;;4963176;28;20440;-64
2021/01/14 07:43:50;;;;;;;4.40;1.45;;;15.70;57.70;;;;;;4973380;28;20027;-65
2021/01/14 07:46:24;;;;;;;5.32;1.27;;;15.60;57.20;;;;;;4965710;28;20039;-65
2021/01/14 07:48:52;;;;;;;4.60;1.50;;;15.60;57.20;;;;;;4960196;28;20097;-63
2021/01/14 07:51:18;;;;;;;5.13;1.70;;;15.60;57.20;;;;;;4970231;28;20027;-64
2021/01/14 07:54:06;;;;;;;3.38;1.30;;;15.60;57.30;;;;;;4956198;28;20069;-63
2021/01/14 07:56:44;;;;;;;3.75;1.10;;;15.50;57.30;;;;;;4961248;28;20038;-64
2021/01/14 07:59:10;;;;;;;2.72;1.20;;;15.60;57.40;;;;;;4958942;28;20112;-64
2021/01/14 08:02:02;;;;;;;4.35;1.48;;;15.50;57.30;;;;;;4966073;28;20098;-64
2021/01/14 08:04:28;;;;;;;5.30;1.70;;;15.50;57.30;;;;;;4951814;28;20027;-63
2021/01/14 08:06:53;;;;;;;4.47;1.55;;;15.50;57.30;;;;;;4939190;28;20039;-63
2021/01/14 08:09:19;;;;;;;5.47;1.33;;;15.50;57.30;;;;;;4983048;28;20053;-64
2021/01/14 08:11:44;;;;;;;3.10;1.20;;;15.40;57.20;;;;;;4950333;28;20416;-64
2021/01/14 08:14:17;;;;;;;3.65;1.35;;;15.40;57.20;;;;;;4965583;28;20016;-64
2021/01/14 08:16:46;;;;;;;4.80;1.50;;;15.40;57.20;;;;;;4963967;28;20023;-65
2021/01/14 08:19:30;;;;;;;4.15;1.20;;;15.40;57.20;;;;;;4965290;28;20416;-62
2021/01/14 08:21:58;;;;;;;2.85;1.20;;;15.40;57.20;;;;;;4958985;28;20471;-64
2021/01/14 08:24:47;;;;;;;5.65;1.40;;;15.40;57.10;;;;;;4965313;28;20488;-64
2021/01/14 08:27:13;;;;;;;3.40;1.30;;;15.40;57.10;;;;;;4963110;28;20042;-64
2021/01/14 08:29:44;;;;;;;3.00;1.30;;;15.30;57.20;;;;;;4972324;28;20030;-63
2021/01/14 08:32:28;;;;;;;3.08;1.33;;;15.30;57.10;;;;;;4972537;28;20037;-63
2021/01/14 08:34:58;;;;;;;5.50;1.33;;;15.30;57.10;;;;;;4960927;28;20399;-66
2021/01/14 08:37:50;;;;;;;3.00;0.93;;;15.20;57.00;;;;;;4948983;28;20086;-66
2021/01/14 08:40:25;;;;;;;3.58;1.15;;;15.20;57.00;;;;;;4977382;28;20033;-64
2021/01/14 08:43:11;;;;;;;3.97;1.20;;;15.20;57.00;;;;;;4976754;28;20027;-64
2021/01/14 08:45:48;;;;;;;3.33;1.20;;;15.20;57.00;;;;;;4954121;29;20054;-64
2021/01/14 08:48:27;;;;;;;3.15;1.05;;;15.20;56.90;;;;;;4966499;28;20650;-64
2021/01/14 08:50:56;;;;;;;5.00;1.30;;;15.20;56.90;;;;;;4972080;28;20053;-64
2021/01/14 08:53:21;;;;;;;3.78;1.42;;;15.10;56.90;;;;;;4955990;28;20023;-64
2021/01/14 08:56:09;;;;;;;4.07;1.20;;;15.10;56.80;;;;;;4967294;28;20065;-65
2021/01/14 08:58:44;;;;;;;2.95;1.17;;;15.10;56.70;;;;;;4961285;28;20089;-66
2021/01/14 09:01:16;;;;;;;2.67;1.10;;;15.20;56.50;;;;;;4955704;28;20035;-64
2021/01/14 09:03:42;;;;;;;3.08;1.10;;;15.20;56.50;;;;;;4969478;28;20035;-64
2021/01/14 09:06:08;;;;;;;2.72;1.15;;;15.10;56.30;;;;;;4967172;28;20054;-65
2021/01/14 09:08:33;;;;;;;3.90;1.73;;;15.10;56.40;;;;;;4951758;28;20191;-65
2021/01/14 09:10:59;;;;;;;3.45;1.48;;;15.10;56.40;;;;;;4962812;28;20042;-64
2021/01/14 09:13:27;;;;;;;2.78;1.20;;;15.10;56.40;;;;;;4965364;28;20035;-63
2021/01/14 09:15:55;;;;;;;4.53;1.58;;;15.10;56.30;;;;;;4959748;28;20035;-63
2021/01/14 09:18:30;;;;;;;2.90;1.27;;;15.10;56.30;;;;;;4948124;28;20055;-64
2021/01/14 09:20:55;;;;;;;2.83;1.20;;;15.10;56.30;;;;;;4950428;28;20030;-63
2021/01/14 09:23:22;;;;;;;3.45;1.25;;;15.00;56.30;;;;;;4959372;28;20031;-66
2021/01/14 09:25:51;;;;;;;3.53;1.17;;;15.00;56.30;;;;;;4966602;28;20170;-64
2021/01/14 09:28:20;;;;;;;3.85;1.52;;;15.00;56.30;;;;;;4972791;28;20050;-63
2021/01/14 09:30:53;;;;;;;3.65;1.30;;;15.00;56.30;;;;;;4962003;28;20022;-62
2021/01/14 09:33:26;;;;;;;5.38;1.60;;;15.00;56.30;;;;;;4941097;28;20042;-64
2021/01/14 09:36:18;;;;;;;10.88;1.80;;;15.00;56.10;;;;;;4963071;28;20579;-64
2021/01/14 09:38:51;;;;;;;7.55;1.48;;;15.00;56.00;;;;;;4963779;28;20022;-63
2021/01/14 09:41:23;;;;;;;4.05;1.50;;;15.10;56.30;;;;;;4950510;28;20038;-63
2021/01/14 09:43:51;;;;;;;3.35;1.38;;;15.00;56.40;;;;;;4980366;28;20031;-63
2021/01/14 09:46:20;;;;;;;4.60;1.52;;;15.10;56.60;;;;;;4962762;28;20030;-64
2021/01/14 09:48:46;;;;;;;4.55;1.30;;;15.00;56.70;;;;;;4966011;28;20034;-65
2021/01/14 09:51:13;;;;;;;7.57;1.40;;;15.10;56.50;;;;;;4978394;28;20022;-64
2021/01/14 09:53:43;;;;;;;4.20;1.70;;;15.20;56.30;;;;;;4975812;28;20106;-65
2021/01/14 09:56:20;;;;;;;4.72;1.40;;;15.10;56.40;;;;;;4969331;28;20015;-66
2021/01/14 09:58:48;;;;;;;5.63;1.33;;;15.20;56.40;;;;;;4951488;28;20027;-65
2021/01/14 10:01:17;;;;;;;4.07;1.73;;;15.10;56.40;;;;;;4968949;28;20142;-64
2021/01/14 10:03:47;;;;;;;6.63;2.08;;;15.30;56.20;;;;;;4961027;28;20245;-65
2021/01/14 10:06:15;;;;;;;5.93;1.77;;;15.30;55.70;;;;;;4931488;28;20035;-64
2021/01/14 10:08:46;;;;;;;4.57;1.67;;;15.40;55.70;;;;;;4940874;28;20027;-64
2021/01/14 10:11:12;;;;;;;5.50;1.95;;;15.40;55.70;;;;;;4961274;28;20026;-64
2021/01/14 10:13:47;;;;;;;7.80;1.90;;;15.40;55.80;;;;;;4954263;28;20598;-66
2021/01/14 10:16:13;;;;;;;6.03;1.92;;;15.40;55.80;;;;;;4977534;28;20597;-63
2021/01/14 10:18:38;;;;;;;7.90;3.20;;;15.40;56.00;;;;;;4965604;28;20031;-64
2021/01/14 10:21:04;;;;;;;11.60;4.50;;;15.30;56.30;;;;;;4963885;28;20046;-64
2021/01/14 10:23:32;;;;;;;8.88;4.70;;;15.40;56.70;;;;;;4943600;28;20066;-63
2021/01/14 10:25:57;;;;;;;7.55;4.40;;;15.50;56.90;;;;;;4968535;28;20093;-63
2021/01/14 10:28:23;;;;;;;14.55;11.93;;;15.70;56.60;;;;;;4952017;28;20463;-64
2021/01/14 10:30:50;;;;;;;41.20;37.42;;;15.70;57.30;;;;;;4964111;28;20027;-64
2021/01/14 10:33:15;;;;;;;24.00;21.50;;;15.80;56.90;;;;;;4970625;28;20031;-64
2021/01/14 10:35:41;;;;;;;20.60;18.40;;;15.80;56.70;;;;;;4947702;28;20046;-64
2021/01/14 10:38:12;;;;;;;20.02;18.13;;;15.80;57.20;;;;;;4971068;28;20039;-67
2021/01/14 10:40:40;;;;;;;20.75;18.65;;;15.80;57.90;;;;;;4962963;28;20195;-67
2021/01/14 10:43:07;;;;;;;29.08;17.20;;;15.80;58.60;;;;;;4972523;28;20031;-65
2021/01/14 10:45:35;;;;;;;21.45;17.98;;;15.90;59.20;;;;;;4965933;28;20038;-65
2021/01/14 10:48:10;;;;;;;18.77;16.73;;;15.90;59.60;;;;;;4967361;28;20041;-64
2021/01/14 10:50:56;;;;;;;18.13;16.27;;;15.90;59.70;;;;;;4950836;28;20038;-63
2021/01/14 10:53:28;;;;;;;24.17;14.77;;;15.90;59.20;;;;;;4956169;28;20039;-65
2021/01/14 10:56:20;;;;;;;15.27;12.95;;;15.80;58.60;;;;;;4951831;28;20046;-64
2021/01/14 10:58:55;;;;;;;13.55;12.13;;;15.90;58.00;;;;;;4966412;28;20069;-65
2021/01/14 11:01:21;;;;;;;16.38;12.23;;;15.90;58.20;;;;;;4978713;28;20031;-65
2021/01/14 11:03:47;;;;;;;15.55;11.13;;;16.00;58.00;;;;;;4962443;28;20045;-66
2021/01/14 11:06:30;;;;;;;18.65;11.18;;;15.90;57.90;;;;;;4976463;28;20034;-64
2021/01/14 11:09:03;;;;;;;13.25;10.48;;;15.90;58.70;;;;;;4963051;28;20037;-65
2021/01/14 11:11:29;;;;;;;14.23;9.95;;;16.00;58.30;;;;;;4994460;28;20027;-68
2021/01/14 11:13:54;;;;;;;16.20;9.50;;;16.00;58.40;;;;;;4971177;28;20032;-64
2021/01/14 11:16:27;;;;;;;15.50;9.07;;;16.00;58.50;;;;;;4962311;28;20125;-68
2021/01/14 11:18:55;;;;;;;19.75;11.13;;;16.00;58.50;;;;;;4981439;28;20027;-65
2021/01/14 11:21:28;;;;;;;18.80;11.90;;;15.90;58.80;;;;;;4974988;28;20042;-66
2021/01/14 11:23:54;;;;;;;17.98;9.85;;;15.90;58.60;;;;;;4962722;28;20475;-65
2021/01/14 11:26:20;;;;;;;31.88;21.02;;;15.90;58.10;;;;;;4960425;28;20119;-66
2021/01/14 11:28:47;;;;;;;33.58;23.45;;;16.00;58.70;;;;;;4942109;28;20023;-68
2021/01/14 11:31:17;;;;;;;33.55;22.25;;;16.00;58.00;;;;;;4962862;28;20050;-65
2021/01/14 11:33:43;;;;;;;36.40;22.35;;;16.00;58.40;;;;;;4951203;28;20035;-67
2021/01/14 11:36:09;;;;;;;34.53;19.52;;;16.00;57.80;;;;;;4962302;28;20419;-67
2021/01/14 11:38:35;;;;;;;30.10;19.27;;;16.00;58.10;;;;;;4968410;28;20027;-66
2021/01/14 11:41:01;;;;;;;29.58;18.50;;;15.90;58.20;;;;;;4971889;28;20039;-66
2021/01/14 11:43:27;;;;;;;27.38;18.55;;;15.90;58.30;;;;;;4957223;28;20027;-70
2021/01/14 11:45:53;;;;;;;28.23;16.63;;;15.90;58.20;;;;;;4974816;28;20065;-65
2021/01/14 11:48:19;;;;;;;24.60;16.73;;;15.80;58.40;;;;;;4974980;28;20046;-66
2021/01/14 11:50:45;;;;;;;25.05;15.27;;;15.80;58.40;;;;;;4975004;28;20069;-66
2021/01/14 11:53:10;;;;;;;22.60;14.52;;;15.80;58.20;;;;;;4974682;28;20059;-66
2021/01/14 11:55:36;;;;;;;19.25;14.13;;;15.80;58.20;;;;;;4975004;28;20109;-66
2021/01/14 11:58:02;;;;;;;19.98;13.02;;;15.80;58.10;;;;;;4974780;28;20101;-68
2021/01/14 12:00:28;;;;;;;18.90;12.27;;;15.80;58.00;;;;;;4974857;28;20101;-68
2021/01/14 12:02:53;;;;;;;19.27;12.00;;;15.80;57.90;;;;;;4974327;28;20580;-66
2021/01/14 12:05:19;;;;;;;16.88;10.93;;;15.80;57.80;;;;;;4974675;28;20030;-65
2021/01/14 12:07:44;;;;;;;19.23;10.60;;;15.80;57.80;;;;;;4974680;28;20019;-66
2021/01/14 12:10:10;;;;;;;15.00;10.05;;;15.80;57.60;;;;;;4957295;28;20425;-66
2021/01/14 12:12:36;;;;;;;19.08;10.15;;;15.80;57.60;;;;;;4974279;28;20034;-66
2021/01/14 12:15:02;;;;;;;15.57;9.80;;;15.80;57.70;;;;;;4974554;28;20126;-66
2021/01/14 12:17:28;;;;;;;14.07;9.68;;;15.90;57.60;;;;;;4955829;28;20121;-68
2021/01/14 12:19:54;;;;;;;14.95;9.18;;;15.90;57.70;;;;;;4956998;28;20065;-66
2021/01/14 12:22:19;;;;;;;14.10;9.00;;;15.90;57.70;;;;;;4974055;28;20229;-64
2021/01/14 12:24:45;;;;;;;14.27;8.80;;;15.90;57.60;;;;;;4974141;28;20062;-66
2021/01/14 12:27:10;;;;;;;13.27;8.60;;;15.90;57.60;;;;;;4974148;28;20062;-66
2021/01/14 12:29:36;;;;;;;16.92;8.98;;;15.90;57.60;;;;;;4956689;28;20096;-68
2021/01/14 12:32:05;;;;;;;12.13;7.97;;;15.90;57.60;;;;;;4973735;28;20376;-65
2021/01/14 12:34:31;;;;;;;11.27;7.75;;;15.90;57.50;;;;;;4973736;28;20027;-67
2021/01/14 12:36:57;;;;;;;12.90;7.43;;;16.00;57.40;;;;;;4973765;28;20481;-65
2021/01/14 12:39:24;;;;;;;13.15;7.50;;;16.00;57.50;;;;;;4956364;28;20495;-66
2021/01/14 12:41:50;;;;;;;11.98;7.38;;;16.00;58.00;;;;;;4973383;28;20027;-65
2021/01/14 12:44:15;;;;;;;12.10;6.97;;;16.00;57.50;;;;;;4973417;28;20089;-66
2021/01/14 12:46:43;;;;;;;11.60;6.72;;;16.00;57.60;;;;;;4973611;28;20102;-65
2021/01/14 12:49:09;;;;;;;12.43;6.97;;;16.00;57.40;;;;;;4956054;28;20086;-69
2021/01/14 12:51:36;;;;;;;12.80;7.10;;;16.10;57.60;;;;;;4973386;28;20034;-69
2021/01/14 12:54:01;;;;;;;11.32;6.47;;;16.00;57.50;;;;;;4955966;28;20543;-68